createdAt,value
2023-03-15T00:01:09.396Z,35.63
2023-03-15T00:03:37.700Z,35.27
2023-03-15T00:06:05.674Z,35.57
2023-03-15T00:08:34.417Z,35.55
2023-03-15T00:11:02.276Z,35.80
2023-03-15T00:13:30.220Z,35.29
2023-03-15T00:15:58.051Z,36.19
2023-03-15T00:18:25.960Z,36.09
2023-03-15T00:20:53.753Z,35.44
2023-03-15T00:23:21.676Z,36.05
2023-03-15T00:25:49.451Z,35.65
2023-03-15T00:28:17.293Z,35.75
2023-03-15T00:30:45.187Z,35.80
2023-03-15T00:33:13.908Z,36.21
2023-03-15T00:35:41.973Z,36.09
2023-03-15T00:38:09.738Z,35.77
2023-03-15T00:40:37.910Z,36.32
2023-03-15T00:43:05.694Z,35.75
2023-03-15T00:45:33.497Z,35.86
2023-03-15T00:48:01.420Z,35.87
2023-03-15T00:50:29.196Z,35.76
2023-03-15T00:52:57.074Z,35.80
2023-03-15T00:55:24.868Z,36.00
2023-03-15T00:57:52.683Z,36.41
2023-03-15T01:00:24.133Z,35.56
2023-03-15T01:02:52.086Z,35.58
2023-03-15T01:05:19.878Z,36.10
2023-03-15T01:07:47.653Z,36.22
2023-03-15T01:10:15.430Z,36.18
2023-03-15T01:12:43.325Z,36.16
2023-03-15T01:15:12.001Z,35.56
2023-03-15T01:17:39.826Z,36.23
2023-03-15T01:20:08.021Z,36.00
2023-03-15T01:22:35.780Z,35.61
2023-03-15T01:25:03.564Z,35.12
2023-03-15T01:27:31.411Z,35.70
2023-03-15T01:29:59.191Z,36.09
2023-03-15T01:32:27.148Z,35.64
2023-03-15T01:34:55.111Z,35.82
2023-03-15T01:37:24.841Z,35.70
2023-03-15T01:39:52.637Z,36.06
2023-03-15T01:42:20.538Z,36.21
2023-03-15T01:44:48.406Z,35.32
2023-03-15T01:47:16.175Z,35.46
2023-03-15T01:49:43.892Z,35.42
2023-03-15T01:52:13.022Z,35.32
2023-03-15T01:54:40.768Z,35.60
2023-03-15T01:57:08.516Z,35.74
2023-03-15T01:59:36.908Z,35.89
2023-03-15T02:02:04.804Z,35.81
2023-03-15T02:04:32.553Z,36.26
2023-03-15T02:07:01.591Z,36.01
2023-03-15T02:09:29.549Z,35.71
2023-03-15T02:11:57.474Z,35.58
2023-03-15T02:14:25.265Z,35.35
2023-03-15T02:16:53.671Z,35.46
2023-03-15T02:19:21.467Z,36.34
2023-03-15T02:21:49.210Z,35.86
2023-03-15T02:24:17.149Z,35.71
2023-03-15T02:26:44.875Z,35.46
2023-03-15T02:29:12.855Z,35.94
2023-03-15T02:31:40.704Z,35.42
2023-03-15T02:34:08.505Z,35.60
2023-03-15T02:36:36.503Z,36.08
2023-03-15T02:39:04.350Z,36.23
2023-03-15T02:41:32.279Z,35.75
2023-03-15T02:44:00.001Z,36.14
2023-03-15T02:46:27.819Z,36.15
2023-03-15T02:48:55.564Z,35.87
2023-03-15T02:51:23.326Z,35.84
2023-03-15T02:53:51.120Z,35.68
2023-03-15T02:56:19.043Z,35.91
2023-03-15T02:58:46.857Z,36.11
2023-03-15T03:01:14.742Z,35.98
2023-03-15T03:03:42.568Z,36.06
2023-03-15T03:06:10.752Z,35.65
2023-03-15T03:08:38.968Z,35.96
2023-03-15T03:11:06.681Z,35.89
2023-03-15T03:13:34.459Z,35.83
2023-03-15T03:16:02.242Z,35.88
2023-03-15T03:18:30.032Z,35.13
2023-03-15T03:20:58.170Z,35.88
2023-03-15T03:23:26.723Z,36.25
2023-03-15T03:25:55.179Z,36.13
2023-03-15T03:28:24.196Z,35.70
2023-03-15T03:30:52.099Z,36.21
2023-03-15T03:33:19.892Z,35.82
2023-03-15T03:35:47.734Z,35.43
2023-03-15T03:38:15.536Z,35.68
2023-03-15T03:40:43.339Z,36.23
2023-03-15T03:43:11.135Z,35.90
2023-03-15T03:45:38.969Z,35.57
2023-03-15T03:48:06.745Z,35.75
2023-03-15T03:50:34.649Z,36.04
2023-03-15T03:53:02.433Z,35.95
2023-03-15T03:55:30.200Z,36.23
2023-03-15T03:57:58.065Z,35.50
2023-03-15T04:00:25.849Z,35.78
2023-03-15T04:02:54.325Z,35.46
2023-03-15T04:05:22.096Z,35.73
2023-03-15T04:07:49.856Z,35.60
2023-03-15T04:10:17.587Z,35.95
2023-03-15T04:12:45.365Z,36.30
2023-03-15T04:15:13.155Z,36.46
2023-03-15T04:17:40.951Z,36.02
2023-03-15T04:20:11.826Z,36.41
2023-03-15T04:22:39.616Z,36.30
2023-03-15T04:25:07.459Z,35.88
2023-03-15T04:27:35.293Z,36.11
2023-03-15T04:30:05.496Z,35.46
2023-03-15T04:32:33.550Z,35.99
2023-03-15T04:35:02.178Z,35.38
2023-03-15T04:37:29.974Z,35.59
2023-03-15T04:39:57.757Z,35.41
2023-03-15T04:42:26.171Z,35.83
2023-03-15T04:44:54.933Z,35.99
2023-03-15T04:47:23.673Z,36.44
2023-03-15T04:49:51.373Z,35.69
2023-03-15T04:52:19.131Z,36.09
2023-03-15T04:54:46.956Z,36.19
2023-03-15T04:57:14.746Z,36.37
2023-03-15T04:59:42.522Z,35.90
2023-03-15T05:02:10.435Z,36.13
2023-03-15T05:04:38.304Z,36.00
2023-03-15T05:07:06.088Z,36.70
2023-03-15T05:09:39.703Z,36.04
2023-03-15T05:12:07.859Z,36.56
2023-03-15T05:14:35.592Z,35.74
2023-03-15T05:17:04.129Z,36.77
2023-03-15T05:19:34.728Z,36.02
2023-03-15T05:22:02.539Z,36.65
2023-03-15T05:24:30.283Z,36.32
2023-03-15T05:26:58.056Z,36.10
2023-03-15T05:29:26.137Z,36.04
2023-03-15T05:31:53.994Z,36.50
2023-03-15T05:34:24.212Z,35.88
2023-03-15T05:36:52.027Z,35.75
2023-03-15T05:39:19.879Z,35.93
2023-03-15T05:41:47.732Z,36.27
2023-03-15T05:44:15.458Z,36.12
2023-03-15T05:46:43.168Z,36.17
2023-03-15T05:49:10.960Z,35.77
2023-03-15T05:51:38.681Z,35.44
2023-03-15T05:54:06.446Z,36.02
2023-03-15T05:56:34.206Z,35.92
2023-03-15T05:59:03.112Z,36.16
2023-03-15T06:01:30.839Z,35.98
2023-03-15T06:03:58.725Z,35.75
2023-03-15T06:06:26.664Z,36.11
2023-03-15T06:08:54.470Z,36.41
2023-03-15T06:11:22.321Z,36.13
2023-03-15T06:13:50.397Z,35.54
2023-03-15T06:16:18.345Z,36.06
2023-03-15T06:18:46.273Z,35.63
2023-03-15T06:21:14.145Z,35.89
2023-03-15T06:23:42.352Z,35.20
2023-03-15T06:26:10.102Z,35.48
2023-03-15T06:28:37.861Z,35.37
2023-03-15T06:31:05.601Z,35.33
2023-03-15T06:33:33.438Z,35.67
2023-03-15T06:36:01.278Z,35.48
2023-03-15T06:38:29.121Z,35.05
2023-03-15T06:40:58.388Z,35.73
2023-03-15T06:43:26.152Z,35.94
2023-03-15T06:45:56.121Z,35.31
2023-03-15T06:48:23.933Z,35.77
2023-03-15T06:50:51.715Z,35.24
2023-03-15T06:53:19.527Z,35.28
2023-03-15T06:55:47.339Z,35.35
2023-03-15T06:58:16.215Z,35.54
2023-03-15T07:00:44.326Z,35.27
2023-03-15T07:03:12.154Z,35.43
2023-03-15T07:05:39.973Z,35.24
2023-03-15T07:08:07.735Z,35.37
2023-03-15T07:10:35.518Z,36.08
2023-03-15T07:13:04.411Z,35.18
2023-03-15T07:15:32.148Z,35.73
2023-03-15T07:17:59.924Z,35.99
2023-03-15T07:20:27.638Z,36.24
2023-03-15T07:22:55.348Z,35.42
2023-03-15T07:25:24.076Z,35.27
2023-03-15T07:27:51.895Z,35.65
2023-03-15T07:30:19.691Z,35.62
2023-03-15T07:32:47.645Z,35.73
2023-03-15T07:35:16.992Z,35.71
2023-03-15T07:37:45.008Z,36.05
2023-03-15T07:40:13.808Z,35.18
2023-03-15T07:42:41.663Z,35.50
2023-03-15T07:45:09.554Z,35.31
2023-03-15T07:47:37.289Z,36.15
2023-03-15T07:50:05.041Z,35.93
2023-03-15T07:52:32.866Z,36.00
2023-03-15T07:55:00.744Z,35.86
2023-03-15T07:57:29.067Z,35.82
2023-03-15T07:59:58.713Z,35.92
2023-03-15T08:02:30.559Z,35.77
2023-03-15T08:04:58.822Z,35.97
2023-03-15T08:07:26.577Z,35.78
2023-03-15T08:09:54.333Z,35.45
2023-03-15T08:12:22.029Z,35.58
2023-03-15T08:14:49.917Z,35.59
2023-03-15T08:17:19.973Z,35.52
2023-03-15T08:19:47.755Z,35.78
2023-03-15T08:22:16.454Z,35.88
2023-03-15T08:24:45.516Z,35.37
2023-03-15T08:27:13.299Z,35.75
2023-03-15T08:29:41.185Z,35.56
2023-03-15T08:32:08.984Z,35.59
2023-03-15T08:34:36.806Z,35.80
2023-03-15T08:37:04.569Z,35.76
2023-03-15T08:39:32.384Z,35.71
2023-03-15T08:42:00.132Z,35.38
2023-03-15T08:44:27.868Z,35.44
2023-03-15T08:46:55.740Z,35.34
2023-03-15T08:49:23.538Z,35.56
2023-03-15T08:51:51.436Z,35.19
2023-03-15T08:54:19.191Z,34.97
2023-03-15T08:56:46.941Z,35.20
2023-03-15T08:59:29.053Z,35.18
2023-03-15T09:01:59.052Z,35.37
2023-03-15T09:04:26.863Z,34.89
2023-03-15T09:06:55.030Z,35.46
2023-03-15T09:09:22.791Z,35.40
2023-03-15T09:11:50.560Z,35.34
2023-03-15T09:14:18.404Z,35.03
2023-03-15T09:16:46.293Z,35.21
2023-03-15T09:19:14.048Z,35.33
2023-03-15T09:21:42.287Z,35.03
2023-03-15T09:24:12.504Z,34.91
2023-03-15T09:26:41.092Z,34.68
2023-03-15T09:29:09.717Z,35.12
2023-03-15T09:31:37.460Z,34.88
2023-03-15T09:34:05.821Z,34.97
2023-03-15T09:36:33.569Z,34.86
2023-03-15T09:39:01.639Z,34.92
2023-03-15T09:41:29.412Z,34.46
2023-03-15T09:43:57.222Z,34.92
2023-03-15T09:46:25.958Z,34.92
2023-03-15T09:48:53.791Z,34.62
2023-03-15T09:51:21.602Z,35.07
2023-03-15T09:53:49.316Z,34.50
2023-03-15T09:56:17.089Z,34.55
2023-03-15T09:58:44.861Z,34.62
2023-03-15T10:01:12.590Z,34.40
2023-03-15T10:03:40.396Z,34.62
2023-03-15T10:06:08.222Z,34.49
2023-03-15T10:08:36.118Z,33.89
2023-03-15T10:11:03.899Z,34.19
2023-03-15T10:13:31.705Z,34.30
2023-03-15T10:15:59.466Z,34.73
2023-03-15T10:18:28.102Z,34.02
2023-03-15T10:20:55.890Z,34.45
2023-03-15T10:23:23.641Z,34.01
2023-03-15T10:25:51.420Z,34.09
2023-03-15T10:28:19.149Z,34.53
2023-03-15T10:30:46.909Z,34.35
2023-03-15T10:33:14.633Z,34.47
2023-03-15T10:35:43.115Z,34.63
2023-03-15T10:38:10.930Z,34.57
2023-03-15T10:40:38.737Z,34.25
2023-03-15T10:43:06.481Z,34.23
2023-03-15T10:45:35.121Z,34.42
2023-03-15T10:48:02.961Z,34.07
2023-03-15T10:50:31.046Z,34.12
2023-03-15T10:52:58.876Z,34.35
2023-03-15T10:55:27.114Z,34.42
2023-03-15T10:57:54.891Z,34.39
2023-03-15T11:00:24.054Z,34.44
2023-03-15T11:02:51.872Z,34.27
2023-03-15T11:05:19.687Z,33.86
2023-03-15T11:07:47.417Z,33.74
2023-03-15T11:10:17.932Z,34.03
2023-03-15T11:12:45.651Z,34.25
2023-03-15T11:15:14.149Z,34.08
2023-03-15T11:17:41.952Z,34.38
2023-03-15T11:20:13.414Z,34.07
2023-03-15T11:22:41.206Z,34.22
2023-03-15T11:25:08.940Z,34.53
2023-03-15T11:27:36.717Z,34.40
2023-03-15T11:30:04.730Z,34.21
2023-03-15T11:32:32.568Z,34.29
2023-03-15T11:35:00.333Z,34.29
2023-03-15T11:37:28.374Z,34.16
2023-03-15T11:40:05.116Z,33.57
2023-03-15T11:42:38.631Z,33.98
2023-03-15T11:45:06.421Z,33.78
2023-03-15T11:47:34.221Z,33.88
2023-03-15T11:50:02.124Z,33.51
2023-03-15T11:52:29.908Z,33.74
2023-03-15T11:54:57.680Z,33.46
2023-03-15T11:57:25.434Z,33.52
2023-03-15T11:59:53.340Z,34.23
2023-03-15T12:02:21.263Z,33.59
2023-03-15T12:04:49.349Z,34.05
2023-03-15T12:07:17.091Z,33.56
2023-03-15T12:09:44.873Z,33.44
2023-03-15T12:12:12.685Z,34.23
2023-03-15T12:14:40.441Z,33.69
2023-03-15T12:17:08.274Z,33.92
2023-03-15T12:19:36.556Z,34.17
2023-03-15T12:22:04.388Z,32.95
2023-03-15T12:24:32.249Z,34.20
2023-03-15T12:27:00.085Z,34.26
2023-03-15T12:29:27.896Z,33.86
2023-03-15T12:31:56.799Z,33.62
2023-03-15T12:34:24.617Z,34.36
2023-03-15T12:36:52.444Z,33.89
2023-03-15T12:39:20.861Z,33.08
2023-03-15T12:41:48.921Z,33.18
2023-03-15T12:44:16.736Z,33.74
2023-03-15T12:46:44.539Z,33.50
2023-03-15T12:49:12.260Z,32.34
2023-03-15T12:51:40.133Z,33.83
2023-03-15T12:54:07.907Z,33.11
2023-03-15T12:56:35.733Z,32.82
2023-03-15T12:59:04.979Z,33.98
2023-03-15T13:01:33.757Z,33.64
2023-03-15T13:04:01.665Z,34.11
2023-03-15T13:06:30.179Z,32.74
2023-03-15T13:08:57.978Z,33.14
2023-03-15T13:11:25.767Z,33.60
2023-03-15T13:13:53.538Z,33.60
2023-03-15T13:16:22.287Z,33.43
2023-03-15T13:18:50.485Z,33.66
2023-03-15T13:21:18.505Z,33.36
2023-03-15T13:23:46.268Z,33.54
2023-03-15T13:26:14.054Z,33.75
2023-03-15T13:28:42.500Z,33.63
2023-03-15T13:31:12.354Z,32.73
2023-03-15T13:33:40.194Z,33.55
2023-03-15T13:36:08.190Z,33.36
2023-03-15T13:38:36.000Z,33.38
2023-03-15T13:41:03.889Z,33.46
2023-03-15T13:43:31.804Z,33.66
2023-03-15T13:45:59.725Z,33.85
2023-03-15T13:48:27.572Z,33.54
2023-03-15T13:50:55.681Z,33.71
2023-03-15T13:53:26.815Z,32.50
2023-03-15T13:55:58.427Z,34.27
2023-03-15T13:58:26.283Z,33.30
2023-03-15T14:00:54.131Z,33.41
2023-03-15T14:03:22.544Z,34.03
2023-03-15T14:05:50.315Z,33.24
2023-03-15T14:08:18.175Z,33.12
2023-03-15T14:10:45.959Z,33.56
2023-03-15T14:13:13.725Z,33.69
2023-03-15T14:15:41.737Z,33.57
2023-03-15T14:18:09.664Z,33.52
2023-03-15T14:20:37.447Z,32.93
2023-03-15T14:23:05.297Z,33.65
2023-03-15T14:25:33.080Z,33.20
2023-03-15T14:28:00.901Z,32.76
2023-03-15T14:30:28.793Z,33.16
2023-03-15T14:32:57.385Z,33.31
2023-03-15T14:35:25.556Z,33.03
2023-03-15T14:37:53.865Z,32.88
2023-03-15T14:40:21.980Z,31.87
2023-03-15T14:42:49.849Z,31.83
2023-03-15T14:45:18.000Z,31.07
2023-03-15T14:47:56.333Z,31.08
2023-03-15T14:50:25.293Z,29.16
2023-03-15T14:52:54.307Z,29.68
2023-03-15T14:55:22.193Z,30.35
2023-03-15T14:57:49.975Z,29.01
2023-03-15T15:00:17.972Z,30.70
2023-03-15T15:02:45.844Z,28.89
2023-03-15T15:05:13.680Z,29.12
2023-03-15T15:07:42.125Z,29.77
2023-03-15T15:10:09.919Z,29.22
2023-03-15T15:12:37.741Z,29.15
2023-03-15T15:15:05.552Z,28.81
2023-03-15T15:17:33.411Z,28.16
2023-03-15T15:20:01.197Z,28.44
2023-03-15T15:22:29.098Z,29.54
2023-03-15T15:24:56.948Z,28.92
2023-03-15T15:27:24.781Z,29.90
2023-03-15T15:29:52.599Z,29.60
2023-03-15T15:32:20.463Z,30.62
2023-03-15T15:34:48.543Z,31.07
2023-03-15T15:37:16.686Z,30.79
2023-03-15T15:39:44.511Z,30.46
2023-03-15T15:42:12.295Z,30.43
2023-03-15T15:44:40.390Z,30.93
2023-03-15T15:47:08.258Z,31.17
2023-03-15T15:49:36.143Z,30.92
2023-03-15T15:52:04.413Z,31.56
2023-03-15T15:54:35.628Z,31.28
2023-03-15T15:57:03.467Z,31.23
2023-03-15T15:59:31.360Z,31.44
2023-03-15T16:02:06.424Z,31.62
2023-03-15T16:04:34.272Z,31.58
2023-03-15T16:07:03.633Z,31.89
2023-03-15T16:09:31.437Z,32.40
2023-03-15T16:11:59.601Z,32.16
2023-03-15T16:14:27.417Z,32.48
2023-03-15T16:16:55.229Z,32.46
2023-03-15T16:19:23.506Z,32.53
2023-03-15T16:21:51.558Z,32.80
2023-03-15T16:24:19.523Z,32.35
2023-03-15T16:26:47.933Z,32.10
2023-03-15T16:29:15.825Z,32.07
2023-03-15T16:31:43.747Z,32.34
2023-03-15T16:34:11.712Z,32.30
2023-03-15T16:36:39.492Z,32.25
2023-03-15T16:39:07.288Z,32.50
2023-03-15T16:41:35.033Z,32.73
2023-03-15T16:44:02.884Z,31.84
2023-03-15T16:46:30.761Z,32.37
2023-03-15T16:48:59.333Z,31.53
2023-03-15T16:51:27.123Z,32.02
2023-03-15T16:54:05.010Z,31.84
2023-03-15T16:56:36.775Z,31.52
2023-03-15T16:59:04.694Z,31.36
2023-03-15T17:01:34.086Z,30.58
2023-03-15T17:04:05.442Z,31.18
2023-03-15T17:06:33.907Z,30.96
2023-03-15T17:09:01.803Z,31.11
2023-03-15T17:11:29.614Z,31.04
2023-03-15T17:13:57.978Z,31.55
2023-03-15T17:16:25.825Z,31.31
2023-03-15T17:18:53.742Z,31.66
2023-03-15T17:21:21.582Z,31.30
2023-03-15T17:23:49.575Z,31.88
2023-03-15T17:26:17.324Z,32.18
2023-03-15T17:28:45.230Z,32.23
2023-03-15T17:31:24.650Z,32.19
2023-03-15T17:33:53.359Z,32.38
2023-03-15T17:36:21.193Z,31.99
2023-03-15T17:38:49.259Z,32.00
2023-03-15T17:41:17.128Z,31.89
2023-03-15T17:43:45.143Z,32.02
2023-03-15T17:46:12.940Z,32.05
2023-03-15T17:48:40.754Z,31.93
2023-03-15T17:51:08.590Z,32.35
2023-03-15T17:53:36.487Z,32.01
2023-03-15T17:56:04.348Z,32.19
2023-03-15T17:58:32.178Z,32.80
2023-03-15T18:01:00.082Z,32.94
2023-03-15T18:03:27.914Z,32.59
2023-03-15T18:05:55.914Z,32.92
2023-03-15T18:08:25.016Z,33.23
2023-03-15T18:10:54.338Z,32.29
2023-03-15T18:13:23.367Z,32.70
2023-03-15T18:18:29.705Z,30.44
2023-03-15T18:20:57.616Z,30.63
2023-03-15T18:23:25.391Z,31.04
2023-03-15T18:25:53.103Z,29.79
2023-03-15T18:28:20.878Z,30.30
2023-03-15T18:30:48.788Z,30.53
2023-03-15T18:33:17.406Z,30.30
2023-03-15T18:35:45.379Z,30.47
2023-03-15T18:38:14.019Z,30.86
2023-03-15T18:40:42.088Z,31.17
2023-03-15T18:43:10.147Z,30.71
2023-03-15T18:45:38.016Z,30.59
2023-03-15T18:48:05.835Z,30.74
2023-03-15T18:50:33.803Z,31.24
2023-03-15T18:53:01.687Z,31.20
2023-03-15T18:55:29.437Z,31.32
2023-03-15T18:57:57.152Z,31.50
2023-03-15T19:00:26.273Z,31.35
2023-03-15T19:02:54.340Z,31.23
2023-03-15T19:05:22.179Z,31.45
2023-03-15T19:07:49.944Z,31.43
2023-03-15T19:10:19.312Z,31.74
2023-03-15T19:12:47.028Z,31.89
2023-03-15T19:15:17.679Z,31.98
2023-03-15T19:17:45.556Z,32.04
2023-03-15T19:20:13.324Z,31.88
2023-03-15T19:22:41.505Z,32.22
2023-03-15T19:25:11.503Z,31.98
2023-03-15T19:27:39.267Z,32.20
2023-03-15T19:30:09.055Z,31.98
2023-03-15T19:32:36.997Z,32.44
2023-03-15T19:35:04.994Z,32.50
2023-03-15T19:37:32.761Z,33.29
2023-03-15T19:40:00.509Z,33.33
2023-03-15T19:42:28.280Z,33.40
2023-03-15T19:44:56.099Z,33.61
2023-03-15T19:47:23.991Z,33.56
2023-03-15T19:49:51.801Z,33.62
2023-03-15T19:52:19.905Z,33.42
2023-03-15T19:54:49.033Z,33.63
2023-03-15T19:57:16.803Z,33.75
2023-03-15T19:59:44.983Z,33.68
2023-03-15T20:02:12.755Z,34.07
2023-03-15T20:04:40.668Z,34.09
2023-03-15T20:07:11.125Z,34.08
2023-03-15T20:09:39.103Z,33.75
2023-03-15T20:12:07.695Z,34.18
2023-03-15T20:14:37.130Z,34.55
2023-03-15T20:17:04.926Z,34.39
2023-03-15T20:19:33.216Z,34.41
2023-03-15T20:22:01.732Z,33.58
2023-03-15T20:24:29.559Z,33.75
2023-03-15T20:26:57.329Z,33.66
2023-03-15T20:29:25.076Z,34.01
2023-03-15T20:31:53.438Z,34.23
2023-03-15T20:34:22.244Z,33.97
2023-03-15T20:36:52.711Z,33.86
2023-03-15T20:39:25.445Z,34.10
2023-03-15T20:41:53.502Z,34.11
2023-03-15T20:44:21.276Z,34.62
2023-03-15T20:46:49.358Z,34.28
2023-03-15T20:49:17.658Z,34.48
2023-03-15T20:51:45.533Z,34.62
2023-03-15T20:54:13.234Z,34.67
2023-03-15T20:56:41.034Z,34.39
2023-03-15T20:59:09.468Z,34.34
2023-03-15T21:01:37.262Z,34.43
2023-03-15T21:04:05.087Z,34.92
2023-03-15T21:06:33.243Z,35.09
2023-03-15T21:09:01.096Z,34.45
2023-03-15T21:11:28.888Z,35.27
2023-03-15T21:13:56.923Z,34.74
2023-03-15T21:16:26.205Z,34.92
2023-03-15T21:18:55.130Z,34.81
2023-03-15T21:21:23.174Z,34.71
2023-03-15T21:23:51.049Z,34.85
2023-03-15T21:26:18.841Z,34.46
2023-03-15T21:28:47.155Z,35.03
2023-03-15T21:31:15.467Z,34.65
2023-03-15T21:33:43.755Z,35.07
2023-03-15T21:36:12.052Z,35.08
2023-03-15T21:38:39.846Z,35.34
2023-03-15T21:41:07.947Z,35.58
2023-03-15T21:43:35.733Z,35.66
2023-03-15T21:46:03.761Z,35.43
2023-03-15T21:48:32.289Z,35.04
2023-03-15T21:51:02.139Z,35.13
2023-03-15T21:53:30.347Z,35.08
2023-03-15T21:55:58.154Z,35.54
2023-03-15T21:58:25.979Z,35.13
2023-03-15T22:00:53.885Z,35.20
2023-03-15T22:03:25.127Z,34.64
2023-03-15T22:05:53.355Z,34.96
2023-03-15T22:08:21.382Z,34.82
2023-03-15T22:10:49.113Z,35.12
2023-03-15T22:13:16.891Z,35.24
2023-03-15T22:15:44.592Z,35.49
2023-03-15T22:18:12.831Z,35.33
2023-03-15T22:20:40.582Z,34.63
2023-03-15T22:23:08.533Z,35.39
2023-03-15T22:25:36.385Z,35.01
2023-03-15T22:28:04.184Z,34.65
2023-03-15T22:30:31.958Z,34.78
2023-03-15T22:32:59.866Z,34.69
2023-03-15T22:35:27.750Z,35.01
2023-03-15T22:37:56.976Z,34.68
2023-03-15T22:40:25.027Z,35.60
2023-03-15T22:42:52.935Z,34.90
2023-03-15T22:45:20.700Z,35.55
2023-03-15T22:47:49.063Z,34.96
2023-03-15T22:50:16.811Z,35.13
2023-03-15T22:52:44.548Z,34.89
2023-03-15T22:55:12.316Z,35.49
2023-03-15T22:57:40.114Z,34.82
2023-03-15T23:00:13.686Z,35.21
2023-03-15T23:02:41.580Z,35.24
2023-03-15T23:05:09.922Z,34.81
2023-03-15T23:07:37.676Z,35.36
2023-03-15T23:10:06.088Z,35.30
2023-03-15T23:12:36.330Z,35.06
2023-03-15T23:15:04.925Z,35.37
2023-03-15T23:17:32.680Z,35.65
2023-03-15T23:20:00.447Z,35.53
2023-03-15T23:22:28.279Z,35.38
2023-03-15T23:24:57.973Z,35.07
2023-03-15T23:27:26.237Z,35.13
2023-03-15T23:29:55.264Z,35.55
2023-03-15T23:32:23.556Z,35.68
2023-03-15T23:34:51.339Z,35.54
2023-03-15T23:37:19.314Z,35.59
2023-03-15T23:39:47.014Z,35.32
2023-03-15T23:42:15.041Z,35.74
2023-03-15T23:44:43.429Z,34.89
2023-03-15T23:47:12.420Z,35.22
2023-03-15T23:49:40.194Z,35.28
2023-03-15T23:52:08.007Z,35.52
2023-03-15T23:54:40.306Z,35.50
2023-03-15T23:57:08.094Z,35.36
2023-03-15T23:59:35.867Z,34.96
